Fiddletown, CA (95629)

8:56 AM PDT on August 21, 2014 (GMT -0700)
KCASUTTE2 | Change Station
CLOSE
Current Station
Personal Weather Station
Location: Sutter Creek, CA
Elevation: 2323 ft
Nearby Weather Stations

Elev 2323 ft 38.44 °N, 120.68 °W | Updated 4 seconds ago

Clear
Clear
74.4 °F
Feels Like 77 °F
N
0.0
Wind Variable Wind from NNW
Gusts 1.0 mph

Today
High -- | Low -- °F
--% Chance of Precip.
Yesterday
High -- | Low -- °F
Precip. -- in
6:22 AM 7:48 PM
Waning Crescent, 13% visible
Pressure 30.00 in
Visibility 10.0 miles
Clouds Clear
Heat Index 77 °F
Dew Point 48 °F
Humidity 39%
Rainfall 0.00 in
Snow Depth Not available.
UV 0 out of 12
Pollen 6.60 out of 12
Ozone Good
Flu Activity Not available.
METAR KPVF 211415Z AUTO 00000KT 10SM CLR 20/07 A3000 RMK AO1

More Conditions Fewer Conditions

Pressure 30.00 in
Visibility 10.0 miles
Clouds Clear
Heat Index 77 °F
Dew Point 48 °F
Humidity 39%
Rainfall 0.00 in
Snow Depth Not available.
UV 0 out of 12
Pollen 6.60 out of 12
Ozone Good
Flu Activity Not available.
METAR KPVF 211415Z AUTO 00000KT 10SM CLR 20/07 A3000 RMK AO1

More Conditions Fewer Conditions

10-Day Weather Forecast

Almanac

Astronomy

Aug. 21, 2014 Rise Set
Actual Time 6:22 AM PDT 7:48 PM PDT
Civil Twilight 5:54 AM PDT 8:16 PM PDT
Nautical Twilight 5:21 AM PDT 8:49 PM PDT
Astronomical Twilight 4:46 AM PDT 9:24 PM PDT
Moon 2:58 AM PDT 5:20 PM PDT
Length of Visible Light 14h 21m
Length of Day
13h 26m
Tomorrow will be 2m 17s shorter.
Waning Crescent, 13% of the Moon is Illuminated
Today
Waning Crescent
Aug 25
New
Sep 2
First Quarter
Sep 8
Full
Sep 15
Last Quarter

Today's Extremes

State Highs State Lows

Community

WunderPhotos

Upload Photos

1,745,949 photos uploaded!

Nearby

Air Quality

  Air Quality AQ Index Pollutant
Yesterday Good
OZONE
Current Good
OZONE
Thursday Moderate
OZONE
Friday Good
OZONE
Saturday Good
OZONE
Sunday Moderate
OZONE
Monday Moderate
OZONE

Snow Depth

Station Depth Elevation
Echo Peak 0 in 7800 ft
Forestdale Creek 1 in 8029 ft
Blue Lakes 0 in 8000 ft
Fallen Leaf 0 in 6300 ft
Tahoe City Cross 0 in 6750 ft

Earthquake Activity

City Distance Mag. Time & Date
Berkeley, California 93 miles 2.6 7:41 PM PDT
2014-08-16
Minimum magnitude displayed is 2.5.

Coastal Water Temperatures

Place Temperature
No Stations Reporting

Nearby Weather Stations